Time;durP1;ratioP1;P1;durP2;ratioP2;P2;SDS_P1;SDS_P2;PMS_P1;PMS_P2;Temp;Humidity;BMP_temperature;BMP_pressure;BME280_temperature;BME280_humidity;BME280_pressure;Samples;Min_cycle;Max_cycle;Signal;HPM_P1;HPM_P2
2023/05/15 00:00:05;;;;;;;30.63;22.00;;;;;;;;;;5087986;27;20780;-63
2023/05/15 00:02:33;;;;;;;28.25;21.65;;;;;;;;;;5068311;28;20064;-63
2023/05/15 00:05:00;;;;;;;26.70;20.23;;;;;;;;;;5088213;27;20044;-63
2023/05/15 00:07:26;;;;;;;26.45;20.50;;;;;;;;;;5088050;28;20048;-63
2023/05/15 00:09:52;;;;;;;28.40;22.40;;;;;;;;;;5087291;28;20047;-63
2023/05/15 00:12:18;;;;;;;30.70;21.25;;;;;;;;;;5069801;28;20052;-64
2023/05/15 00:14:44;;;;;;;28.92;20.10;;;;;;;;;;5088296;28;20047;-63
2023/05/15 00:17:11;;;;;;;29.02;20.55;;;;;;;;;;5087232;28;20131;-63
2023/05/15 00:19:37;;;;;;;28.25;20.67;;;;;;;;;;5067752;28;20067;-63
2023/05/15 00:22:03;;;;;;;28.85;21.48;;;;;;;;;;5084873;28;20028;-64
2023/05/15 00:24:30;;;;;;;30.77;21.13;;;;;;;;;;5059234;28;20047;-63
2023/05/15 00:26:56;;;;;;;28.50;21.90;;;;;;;;;;5066697;28;20040;-63
2023/05/15 00:29:22;;;;;;;27.83;21.45;;;;;;;;;;5068411;28;20036;-64
2023/05/15 00:31:49;;;;;;;30.15;19.85;;;;;;;;;;5069017;28;20048;-63
2023/05/15 00:34:15;;;;;;;24.83;19.15;;;;;;;;;;5084361;28;20087;-64
2023/05/15 00:36:41;;;;;;;29.42;19.48;;;;;;;;;;5070461;27;20056;-63
2023/05/15 00:39:08;;;;;;;26.60;20.42;;;;;;;;;;5091526;27;20036;-63
2023/05/15 00:41:35;;;;;;;25.95;20.48;;;;;;;;;;5074413;28;20078;-63
2023/05/15 00:44:01;;;;;;;23.80;18.92;;;;;;;;;;5072610;28;20048;-64
2023/05/15 00:46:30;;;;;;;26.65;19.77;;;;;;;;;;5075007;27;20046;-63
2023/05/15 00:48:57;;;;;;;29.23;19.60;;;;;;;;;;5093808;28;20051;-63
2023/05/15 00:51:23;;;;;;;25.35;18.33;;;;;;;;;;5092510;27;20082;-63
2023/05/15 00:53:51;;;;;;;27.35;19.67;;;;;;;;;;5091476;27;20031;-63
2023/05/15 00:56:17;;;;;;;26.67;20.50;;;;;;;;;;5070281;28;20064;-63
2023/05/15 00:58:46;;;;;;;24.85;19.25;;;;;;;;;;5089694;27;20335;-63
2023/05/15 01:01:14;;;;;;;26.73;20.13;;;;;;;;;;5072362;27;20056;-63
2023/05/15 01:03:40;;;;;;;30.88;20.15;;;;;;;;;;5074777;28;20044;-63
2023/05/15 01:06:07;;;;;;;27.77;19.63;;;;;;;;;;5093539;27;20158;-63
2023/05/15 01:08:33;;;;;;;25.25;18.73;;;;;;;;;;5075396;28;20043;-63
2023/05/15 01:10:59;;;;;;;25.90;19.27;;;;;;;;;;5074974;28;20031;-63
2023/05/15 01:13:26;;;;;;;24.73;17.60;;;;;;;;;;5093786;28;20040;-63
2023/05/15 01:15:52;;;;;;;23.98;18.27;;;;;;;;;;5072368;28;20479;-63
2023/05/15 01:18:18;;;;;;;26.15;17.75;;;;;;;;;;5071826;28;20126;-63
2023/05/15 01:20:54;;;;;;;27.15;17.95;;;;;;;;;;5072207;28;20074;-63
2023/05/15 01:23:38;;;;;;;22.55;18.42;;;;;;;;;;5091714;27;21066;-63
2023/05/15 01:26:10;;;;;;;20.33;16.10;;;;;;;;;;5090286;27;20687;-63
2023/05/15 01:28:39;;;;;;;27.10;19.35;;;;;;;;;;5073432;27;20055;-63
2023/05/15 01:31:08;;;;;;;26.52;18.52;;;;;;;;;;5091248;27;20336;-63
2023/05/15 01:33:37;;;;;;;22.70;18.98;;;;;;;;;;5087499;27;20095;-63
2023/05/15 01:36:18;;;;;;;24.70;19.33;;;;;;;;;;5053192;28;20052;-63
2023/05/15 01:38:47;;;;;;;30.42;24.52;;;;;;;;;;5071556;28;20039;-63
2023/05/15 01:41:16;;;;;;;34.42;25.17;;;;;;;;;;5072902;28;20128;-63
2023/05/15 01:43:44;;;;;;;37.58;26.08;;;;;;;;;;5090076;27;20041;-63
2023/05/15 01:46:12;;;;;;;31.38;23.65;;;;;;;;;;5070253;28;20077;-63
2023/05/15 01:48:40;;;;;;;28.98;23.58;;;;;;;;;;5088832;28;20058;-63
2023/05/15 01:51:07;;;;;;;30.15;22.75;;;;;;;;;;5070836;28;20052;-63
2023/05/15 01:53:34;;;;;;;30.42;21.75;;;;;;;;;;5070299;28;20430;-63
2023/05/15 01:56:01;;;;;;;29.10;21.67;;;;;;;;;;5067913;28;20057;-63
2023/05/15 01:58:27;;;;;;;28.45;22.33;;;;;;;;;;5090000;27;20040;-63
2023/05/15 02:00:54;;;;;;;27.90;22.38;;;;;;;;;;5066384;28;20087;-63
2023/05/15 02:03:21;;;;;;;31.25;22.20;;;;;;;;;;5085542;28;20050;-63
2023/05/15 02:05:48;;;;;;;29.20;22.20;;;;;;;;;;5088327;27;20537;-63
2023/05/15 02:08:15;;;;;;;29.60;22.08;;;;;;;;;;5089046;27;20032;-64
2023/05/15 02:10:41;;;;;;;24.33;19.50;;;;;;;;;;5088174;27;20067;-63
2023/05/15 02:13:10;;;;;;;28.98;19.17;;;;;;;;;;5068759;27;20471;-63
2023/05/15 02:15:38;;;;;;;27.45;19.45;;;;;;;;;;5085848;28;20089;-63
2023/05/15 02:18:04;;;;;;;32.90;20.80;;;;;;;;;;5088405;28;21230;-63
2023/05/15 02:20:30;;;;;;;23.77;19.08;;;;;;;;;;5068347;27;21868;-63
2023/05/15 02:22:57;;;;;;;25.17;19.90;;;;;;;;;;5084489;27;22015;-63
2023/05/15 02:25:29;;;;;;;23.88;19.52;;;;;;;;;;5086351;27;20101;-63
2023/05/15 02:27:58;;;;;;;22.25;17.77;;;;;;;;;;5068332;28;20070;-63
2023/05/15 02:30:37;;;;;;;23.27;17.42;;;;;;;;;;5069890;28;20605;-63
2023/05/15 02:33:09;;;;;;;24.75;17.77;;;;;;;;;;5069694;28;20068;-63
2023/05/15 02:35:35;;;;;;;25.65;19.58;;;;;;;;;;5066489;28;20063;-63
2023/05/15 02:38:06;;;;;;;24.63;17.30;;;;;;;;;;5069871;28;20032;-63
2023/05/15 02:40:33;;;;;;;21.42;15.02;;;;;;;;;;5056541;28;20055;-64
2023/05/15 02:43:00;;;;;;;19.38;16.08;;;;;;;;;;5068657;28;20051;-63
2023/05/15 02:45:27;;;;;;;19.20;14.18;;;;;;;;;;5068408;27;20047;-63
2023/05/15 02:47:54;;;;;;;19.83;14.90;;;;;;;;;;5068483;28;20131;-63
2023/05/15 02:50:20;;;;;;;19.00;14.70;;;;;;;;;;5069402;28;20051;-63
2023/05/15 02:52:46;;;;;;;17.83;14.65;;;;;;;;;;5088910;28;20576;-63
2023/05/15 02:55:12;;;;;;;19.65;14.00;;;;;;;;;;5068536;28;20114;-64
2023/05/15 02:57:39;;;;;;;25.73;15.70;;;;;;;;;;5066763;27;20066;-63
2023/05/15 03:00:07;;;;;;;18.00;13.85;;;;;;;;;;5087477;28;20450;-63
2023/05/15 03:02:34;;;;;;;21.20;15.60;;;;;;;;;;5085986;28;20071;-63
2023/05/15 03:05:00;;;;;;;19.88;15.27;;;;;;;;;;5087900;28;20047;-64
2023/05/15 03:07:26;;;;;;;19.05;15.93;;;;;;;;;;5085863;28;20039;-64
2023/05/15 03:09:52;;;;;;;21.33;15.07;;;;;;;;;;5068313;28;20044;-63
2023/05/15 03:12:18;;;;;;;18.85;14.93;;;;;;;;;;5067096;28;20054;-63
2023/05/15 03:14:44;;;;;;;19.65;15.32;;;;;;;;;;5085989;27;20050;-63
2023/05/15 03:17:10;;;;;;;21.88;16.10;;;;;;;;;;5083206;28;20072;-63
2023/05/15 03:19:37;;;;;;;20.65;16.13;;;;;;;;;;5070900;28;20099;-63
2023/05/15 03:22:03;;;;;;;20.95;16.65;;;;;;;;;;5086786;28;20432;-63
2023/05/15 03:24:29;;;;;;;22.95;16.80;;;;;;;;;;5086006;28;20046;-63
2023/05/15 03:26:55;;;;;;;21.45;16.90;;;;;;;;;;5085008;28;20075;-63
2023/05/15 03:29:21;;;;;;;21.20;16.45;;;;;;;;;;5068915;28;20052;-63
2023/05/15 03:31:47;;;;;;;20.13;16.73;;;;;;;;;;5069525;28;21632;-63
2023/05/15 03:34:14;;;;;;;25.05;19.20;;;;;;;;;;5085829;28;20388;-63
2023/05/15 03:36:40;;;;;;;31.23;18.73;;;;;;;;;;5089300;28;20114;-63
2023/05/15 03:39:06;;;;;;;25.77;19.45;;;;;;;;;;5065915;28;20051;-63
2023/05/15 03:41:32;;;;;;;25.17;19.23;;;;;;;;;;5064206;28;20044;-63
2023/05/15 03:43:59;;;;;;;24.65;19.45;;;;;;;;;;5083423;28;20048;-63
2023/05/15 03:46:25;;;;;;;30.67;19.55;;;;;;;;;;5091961;28;20036;-63
2023/05/15 03:48:53;;;;;;;29.83;20.55;;;;;;;;;;5085718;28;20810;-63
2023/05/15 03:51:19;;;;;;;26.67;20.45;;;;;;;;;;5085905;28;20040;-63
2023/05/15 03:53:45;;;;;;;25.33;19.65;;;;;;;;;;5085837;28;20040;-64
2023/05/15 03:56:11;;;;;;;27.00;20.83;;;;;;;;;;5067677;28;20085;-63
2023/05/15 03:58:38;;;;;;;30.45;21.42;;;;;;;;;;5070591;28;20039;-63
2023/05/15 04:01:04;;;;;;;29.30;20.95;;;;;;;;;;5090862;28;20763;-63
2023/05/15 04:03:30;;;;;;;28.42;20.48;;;;;;;;;;5066476;28;20040;-63
2023/05/15 04:05:56;;;;;;;30.42;21.08;;;;;;;;;;5069978;28;20118;-63
2023/05/15 04:08:23;;;;;;;30.58;22.52;;;;;;;;;;5067921;28;20063;-63
2023/05/15 04:10:49;;;;;;;28.00;22.02;;;;;;;;;;5065366;28;20047;-64
2023/05/15 04:13:15;;;;;;;26.17;21.15;;;;;;;;;;5067056;28;20139;-63
2023/05/15 04:15:42;;;;;;;23.92;18.52;;;;;;;;;;5086279;28;20085;-63
2023/05/15 04:18:08;;;;;;;25.48;21.20;;;;;;;;;;5067033;28;20083;-63
2023/05/15 04:20:34;;;;;;;26.65;20.63;;;;;;;;;;5067732;28;20105;-63
2023/05/15 04:23:01;;;;;;;29.90;19.25;;;;;;;;;;5087747;28;20040;-64
2023/05/15 04:25:27;;;;;;;27.60;20.65;;;;;;;;;;5069824;28;20048;-63
2023/05/15 04:27:53;;;;;;;27.08;19.50;;;;;;;;;;5066983;28;20390;-63
2023/05/15 04:30:20;;;;;;;25.85;19.02;;;;;;;;;;5067804;28;20497;-63
2023/05/15 04:32:46;;;;;;;26.20;20.33;;;;;;;;;;5084549;28;20041;-63
2023/05/15 04:35:13;;;;;;;25.27;18.83;;;;;;;;;;5066144;28;20083;-63
2023/05/15 04:37:40;;;;;;;25.17;18.92;;;;;;;;;;5086946;28;20051;-63
2023/05/15 04:40:07;;;;;;;24.88;19.35;;;;;;;;;;5066537;28;21909;-63
2023/05/15 04:42:34;;;;;;;25.27;18.45;;;;;;;;;;5082235;28;20131;-63
2023/05/15 04:45:01;;;;;;;23.90;19.58;;;;;;;;;;5070781;28;20054;-63
2023/05/15 04:47:27;;;;;;;23.95;18.48;;;;;;;;;;5087424;28;20131;-64
2023/05/15 04:49:53;;;;;;;24.20;18.33;;;;;;;;;;5068988;28;20493;-64
2023/05/15 04:52:19;;;;;;;27.83;18.90;;;;;;;;;;5086392;28;20087;-64
2023/05/15 04:54:47;;;;;;;23.70;17.63;;;;;;;;;;5070217;28;20151;-63
2023/05/15 04:57:13;;;;;;;22.63;17.42;;;;;;;;;;5069647;28;20467;-63
2023/05/15 04:59:39;;;;;;;25.05;19.90;;;;;;;;;;5091088;28;20042;-63
2023/05/15 05:02:05;;;;;;;24.95;18.48;;;;;;;;;;5073948;28;20052;-63
2023/05/15 05:04:31;;;;;;;27.25;19.30;;;;;;;;;;5071188;28;20043;-63
2023/05/15 05:06:57;;;;;;;24.55;18.45;;;;;;;;;;5089412;28;20089;-63
2023/05/15 05:09:24;;;;;;;23.45;19.00;;;;;;;;;;5091940;28;20054;-63
2023/05/15 05:11:50;;;;;;;23.92;18.20;;;;;;;;;;5089107;28;20641;-63
2023/05/15 05:14:16;;;;;;;29.30;20.77;;;;;;;;;;5085091;28;20039;-63
2023/05/15 05:16:44;;;;;;;25.83;19.85;;;;;;;;;;5088833;28;21338;-67
2023/05/15 05:19:11;;;;;;;23.52;17.83;;;;;;;;;;5076015;28;20093;-64
2023/05/15 05:21:37;;;;;;;27.80;19.40;;;;;;;;;;5095198;28;21928;-64
2023/05/15 05:24:03;;;;;;;25.83;18.88;;;;;;;;;;5074740;28;20075;-64
2023/05/15 05:26:29;;;;;;;23.42;18.67;;;;;;;;;;5076606;28;20066;-63
2023/05/15 05:28:55;;;;;;;24.00;17.67;;;;;;;;;;5078032;28;20047;-64
2023/05/15 05:31:21;;;;;;;23.23;18.90;;;;;;;;;;5097226;28;20079;-64
2023/05/15 05:33:50;;;;;;;24.30;19.02;;;;;;;;;;5092809;27;20040;-64
2023/05/15 05:36:16;;;;;;;28.25;19.50;;;;;;;;;;5098586;27;20071;-63
2023/05/15 05:38:42;;;;;;;29.15;21.02;;;;;;;;;;5093911;27;20058;-64
2023/05/15 05:41:08;;;;;;;27.52;20.98;;;;;;;;;;5079580;27;20055;-64
2023/05/15 05:43:34;;;;;;;26.40;19.98;;;;;;;;;;5081449;28;20047;-63
2023/05/15 05:46:01;;;;;;;24.27;19.27;;;;;;;;;;5079037;27;20044;-63
2023/05/15 05:48:28;;;;;;;28.58;21.52;;;;;;;;;;5097077;27;20124;-63
2023/05/15 05:50:54;;;;;;;28.25;21.92;;;;;;;;;;5080930;27;20174;-64
2023/05/15 05:53:20;;;;;;;28.48;21.27;;;;;;;;;;5092479;27;20040;-64
2023/05/15 05:55:46;;;;;;;22.98;20.00;;;;;;;;;;5094105;27;20055;-63
2023/05/15 05:58:13;;;;;;;25.45;19.30;;;;;;;;;;5097387;27;20173;-63
2023/05/15 06:00:39;;;;;;;25.48;20.33;;;;;;;;;;5099279;27;20101;-63
2023/05/15 06:03:05;;;;;;;25.25;20.02;;;;;;;;;;5101762;27;20139;-64
2023/05/15 06:05:33;;;;;;;26.27;20.83;;;;;;;;;;5100048;27;20405;-64
2023/05/15 06:08:03;;;;;;;24.88;20.38;;;;;;;;;;5076271;28;20406;-64
2023/05/15 06:10:30;;;;;;;28.60;21.08;;;;;;;;;;5075380;27;20048;-64
2023/05/15 06:12:56;;;;;;;29.63;21.75;;;;;;;;;;5080634;27;20044;-63
2023/05/15 06:15:22;;;;;;;23.27;19.25;;;;;;;;;;5096195;27;20157;-63
2023/05/15 06:17:48;;;;;;;24.60;20.83;;;;;;;;;;5076387;28;20039;-64
2023/05/15 06:20:15;;;;;;;22.20;17.98;;;;;;;;;;5078587;27;20054;-63
2023/05/15 06:22:41;;;;;;;24.98;18.38;;;;;;;;;;5096173;27;20047;-63
2023/05/15 06:25:12;;;;;;;21.33;15.75;;;;;;;;;;5093280;27;20040;-64
2023/05/15 06:27:38;;;;;;;20.00;15.80;;;;;;;;;;5092569;28;20052;-64
2023/05/15 06:30:05;;;;;;;22.90;16.75;;;;;;;;;;5097558;27;20040;-63
2023/05/15 06:32:32;;;;;;;21.52;16.73;;;;;;;;;;5079914;28;20487;-63
2023/05/15 06:34:58;;;;;;;22.00;17.45;;;;;;;;;;5082347;28;20185;-63
2023/05/15 06:37:25;;;;;;;19.10;15.18;;;;;;;;;;5079668;28;20052;-64
2023/05/15 06:39:51;;;;;;;16.42;13.32;;;;;;;;;;5097363;28;20134;-64
2023/05/15 06:42:17;;;;;;;15.23;11.85;;;;;;;;;;5077155;28;20143;-63
2023/05/15 06:44:43;;;;;;;17.38;12.88;;;;;;;;;;5076123;28;20036;-63
2023/05/15 06:47:09;;;;;;;15.45;12.80;;;;;;;;;;5074480;28;20052;-63
2023/05/15 06:49:35;;;;;;;17.67;14.32;;;;;;;;;;5074271;28;20367;-63
2023/05/15 06:52:02;;;;;;;16.88;13.70;;;;;;;;;;5097500;27;20400;-63
2023/05/15 06:54:28;;;;;;;15.80;13.85;;;;;;;;;;5091716;27;20494;-64
2023/05/15 06:56:54;;;;;;;15.23;11.90;;;;;;;;;;5090499;28;20033;-63
2023/05/15 06:59:20;;;;;;;15.57;11.35;;;;;;;;;;5094323;27;20096;-63
2023/05/15 07:01:46;;;;;;;17.83;13.55;;;;;;;;;;5092253;27;20036;-66
2023/05/15 07:04:13;;;;;;;15.35;13.05;;;;;;;;;;5076801;27;20055;-64
2023/05/15 07:06:39;;;;;;;14.25;12.00;;;;;;;;;;5071006;27;20058;-65
2023/05/15 07:09:05;;;;;;;15.55;13.00;;;;;;;;;;5092420;28;20050;-64
2023/05/15 07:11:32;;;;;;;16.65;14.32;;;;;;;;;;5075329;27;20554;-64
2023/05/15 07:13:58;;;;;;;15.88;13.63;;;;;;;;;;5095209;27;20090;-64
2023/05/15 07:16:24;;;;;;;13.38;10.68;;;;;;;;;;5092503;28;20031;-64
2023/05/15 07:18:50;;;;;;;20.27;14.13;;;;;;;;;;5094614;28;20058;-63
2023/05/15 07:21:17;;;;;;;15.77;13.75;;;;;;;;;;5091706;27;21416;-63
2023/05/15 07:23:43;;;;;;;18.48;14.93;;;;;;;;;;5093441;28;20040;-64
2023/05/15 07:26:09;;;;;;;17.70;14.93;;;;;;;;;;5092951;28;20126;-63
2023/05/15 07:28:35;;;;;;;17.75;13.68;;;;;;;;;;5095531;28;20036;-63
2023/05/15 07:31:02;;;;;;;14.63;11.05;;;;;;;;;;5080461;28;20062;-63
2023/05/15 07:33:28;;;;;;;12.18;10.38;;;;;;;;;;5072959;28;20041;-63
2023/05/15 07:35:54;;;;;;;15.38;11.15;;;;;;;;;;5069160;28;20602;-63
2023/05/15 07:38:20;;;;;;;13.15;10.60;;;;;;;;;;5074534;28;20135;-68
2023/05/15 07:40:46;;;;;;;15.77;10.85;;;;;;;;;;5054382;28;20517;-64
2023/05/15 07:43:12;;;;;;;13.88;10.45;;;;;;;;;;5074375;28;20427;-64
2023/05/15 07:45:39;;;;;;;16.05;11.63;;;;;;;;;;5072934;28;20044;-65
2023/05/15 07:48:15;;;;;;;14.82;10.85;;;;;;;;;;5077792;28;20037;-65
2023/05/15 07:50:41;;;;;;;14.93;11.20;;;;;;;;;;5074718;28;20404;-65
2023/05/15 07:53:07;;;;;;;11.40;9.48;;;;;;;;;;5073188;28;20045;-65
2023/05/15 07:55:33;;;;;;;13.65;10.68;;;;;;;;;;5075850;28;20045;-65
2023/05/15 07:57:59;;;;;;;15.77;11.23;;;;;;;;;;5076983;28;20506;-65
2023/05/15 08:00:26;;;;;;;17.20;13.73;;;;;;;;;;5073937;28;20044;-65
2023/05/15 08:02:52;;;;;;;16.15;13.57;;;;;;;;;;5075157;28;20130;-65
2023/05/15 08:05:18;;;;;;;15.90;12.43;;;;;;;;;;5077230;28;20040;-64
2023/05/15 08:07:45;;;;;;;15.60;11.88;;;;;;;;;;5070665;28;20105;-64
2023/05/15 08:10:11;;;;;;;18.17;13.85;;;;;;;;;;5073666;28;20360;-65
2023/05/15 08:12:37;;;;;;;16.60;12.52;;;;;;;;;;5073141;28;20040;-65
2023/05/15 08:15:03;;;;;;;13.18;11.45;;;;;;;;;;5072890;28;20036;-64
2023/05/15 08:17:30;;;;;;;14.05;10.85;;;;;;;;;;5071797;28;20143;-64
2023/05/15 08:19:56;;;;;;;18.45;13.65;;;;;;;;;;5072691;28;20048;-65
2023/05/15 08:22:22;;;;;;;16.13;12.73;;;;;;;;;;5075215;28;20048;-65
2023/05/15 08:24:48;;;;;;;15.48;13.27;;;;;;;;;;5073802;28;20136;-65
2023/05/15 08:27:14;;;;;;;16.20;13.40;;;;;;;;;;5075219;28;20040;-66
2023/05/15 08:29:41;;;;;;;15.30;12.38;;;;;;;;;;5075344;28;20125;-66
2023/05/15 08:32:09;;;;;;;15.68;12.65;;;;;;;;;;5074251;28;20132;-65
2023/05/15 08:34:35;;;;;;;12.75;11.43;;;;;;;;;;5084107;28;20048;-65
2023/05/15 08:37:01;;;;;;;17.20;13.90;;;;;;;;;;5078684;28;20436;-65
2023/05/15 08:39:27;;;;;;;18.85;12.88;;;;;;;;;;5092525;28;20691;-65
2023/05/15 08:42:02;;;;;;;16.50;13.77;;;;;;;;;;5071677;28;20100;-68
2023/05/15 08:44:30;;;;;;;17.85;13.52;;;;;;;;;;5074548;28;20071;-64
2023/05/15 08:46:57;;;;;;;16.50;13.98;;;;;;;;;;5073691;28;20147;-65
2023/05/15 08:49:30;;;;;;;15.88;14.00;;;;;;;;;;5093901;28;20039;-65
2023/05/15 08:51:57;;;;;;;19.77;16.10;;;;;;;;;;5076740;28;20050;-65
2023/05/15 08:54:24;;;;;;;16.75;14.75;;;;;;;;;;5079921;28;20044;-64
2023/05/15 08:56:50;;;;;;;15.52;13.80;;;;;;;;;;5102491;27;20506;-65
2023/05/15 08:59:16;;;;;;;17.45;15.60;;;;;;;;;;5093903;28;21798;-66
2023/05/15 09:01:42;;;;;;;18.20;16.15;;;;;;;;;;5095132;27;20047;-67
2023/05/15 09:04:09;;;;;;;16.85;13.85;;;;;;;;;;5075571;27;20039;-66
2023/05/15 09:06:35;;;;;;;18.20;14.70;;;;;;;;;;5093675;27;20528;-66
2023/05/15 09:09:04;;;;;;;16.98;13.70;;;;;;;;;;5073440;28;20044;-67
2023/05/15 09:11:30;;;;;;;18.10;14.02;;;;;;;;;;5076100;28;20047;-67
2023/05/15 09:13:58;;;;;;;18.27;13.52;;;;;;;;;;5069097;28;20047;-67
2023/05/15 09:16:24;;;;;;;15.38;12.43;;;;;;;;;;5094786;28;20048;-69
2023/05/15 09:18:51;;;;;;;13.55;11.45;;;;;;;;;;5064774;28;20051;-67
2023/05/15 09:21:22;;;;;;;16.17;11.90;;;;;;;;;;5078038;28;20097;-67
2023/05/15 09:23:49;;;;;;;13.85;10.75;;;;;;;;;;5079891;28;20399;-67
2023/05/15 09:26:15;;;;;;;14.05;11.30;;;;;;;;;;5081684;28;20451;-66
2023/05/15 09:28:41;;;;;;;16.65;11.15;;;;;;;;;;5105279;28;20043;-67
2023/05/15 09:31:08;;;;;;;14.10;10.95;;;;;;;;;;5087694;28;20043;-67
2023/05/15 09:33:35;;;;;;;14.25;10.30;;;;;;;;;;5103264;28;20044;-69
2023/05/15 09:36:02;;;;;;;14.55;10.80;;;;;;;;;;5078219;28;20060;-69
2023/05/15 09:38:29;;;;;;;12.65;9.50;;;;;;;;;;5071698;28;20058;-69
2023/05/15 09:41:04;;;;;;;12.15;9.07;;;;;;;;;;5073752;28;20048;-69
2023/05/15 09:43:36;;;;;;;12.35;9.45;;;;;;;;;;5060965;28;20551;-67
2023/05/15 09:46:02;;;;;;;10.50;8.35;;;;;;;;;;5094184;27;20131;-67
2023/05/15 09:48:28;;;;;;;17.13;9.95;;;;;;;;;;5091725;27;20032;-67
2023/05/15 09:50:55;;;;;;;12.90;9.75;;;;;;;;;;5094112;27;20123;-69
2023/05/15 09:53:21;;;;;;;13.38;9.50;;;;;;;;;;5075494;28;20052;-71
2023/05/15 09:55:48;;;;;;;10.82;9.30;;;;;;;;;;5075510;28;20051;-64
2023/05/15 09:58:15;;;;;;;13.80;9.70;;;;;;;;;;5094016;27;20036;-66
2023/05/15 10:00:43;;;;;;;12.40;9.60;;;;;;;;;;5074001;28;20047;-65
2023/05/15 10:03:09;;;;;;;16.25;8.73;;;;;;;;;;5095646;28;20056;-66
2023/05/15 10:05:35;;;;;;;14.07;9.20;;;;;;;;;;5095216;27;20430;-66
2023/05/15 10:08:02;;;;;;;14.85;9.85;;;;;;;;;;5092203;28;20451;-65
2023/05/15 10:10:29;;;;;;;11.00;8.98;;;;;;;;;;5092318;28;20361;-65
2023/05/15 10:12:58;;;;;;;13.80;9.60;;;;;;;;;;5075626;28;20047;-66
2023/05/15 10:15:25;;;;;;;11.27;9.10;;;;;;;;;;5098497;27;20111;-65
2023/05/15 10:17:52;;;;;;;18.35;10.75;;;;;;;;;;5095538;27;20051;-66
2023/05/15 10:20:19;;;;;;;11.18;9.98;;;;;;;;;;5077588;28;20064;-65
2023/05/15 10:22:46;;;;;;;12.23;10.35;;;;;;;;;;5096171;28;20047;-66
2023/05/15 10:25:16;;;;;;;13.25;10.88;;;;;;;;;;5077089;28;20043;-68
2023/05/15 10:27:42;;;;;;;12.10;9.55;;;;;;;;;;5074587;28;20044;-68
2023/05/15 10:30:10;;;;;;;11.20;8.75;;;;;;;;;;5074757;28;20044;-68
2023/05/15 10:32:37;;;;;;;12.35;8.63;;;;;;;;;;5075140;28;20165;-68
2023/05/15 10:35:03;;;;;;;9.68;8.40;;;;;;;;;;5073854;28;20051;-68
2023/05/15 10:37:30;;;;;;;10.05;8.55;;;;;;;;;;5091936;27;20175;-68
2023/05/15 10:39:57;;;;;;;12.65;8.85;;;;;;;;;;5074022;28;20100;-68
2023/05/15 10:42:24;;;;;;;9.30;8.05;;;;;;;;;;5076123;28;20069;-68
2023/05/15 10:44:52;;;;;;;13.05;8.55;;;;;;;;;;5090472;27;20056;-68
2023/05/15 10:47:19;;;;;;;10.45;7.50;;;;;;;;;;5075464;27;20709;-68
2023/05/15 10:49:45;;;;;;;8.35;6.88;;;;;;;;;;5094510;27;20047;-68
2023/05/15 10:52:11;;;;;;;12.15;7.95;;;;;;;;;;5075687;28;20059;-68
2023/05/15 10:54:38;;;;;;;8.43;6.13;;;;;;;;;;5069716;28;20040;-68
2023/05/15 10:57:05;;;;;;;8.00;6.38;;;;;;;;;;5087843;28;20495;-68
2023/05/15 10:59:32;;;;;;;8.35;5.25;;;;;;;;;;5074948;28;20055;-67
2023/05/15 11:02:18;;;;;;;8.70;5.35;;;;;;;;;;5077376;28;20058;-68
2023/05/15 11:04:44;;;;;;;7.60;4.85;;;;;;;;;;5103548;28;21434;-68
2023/05/15 11:07:13;;;;;;;9.48;4.78;;;;;;;;;;5077495;28;20043;-68
2023/05/15 11:09:39;;;;;;;9.05;5.93;;;;;;;;;;5079364;28;20122;-69
2023/05/15 11:12:07;;;;;;;9.02;5.50;;;;;;;;;;5080520;28;20516;-70
2023/05/15 11:14:35;;;;;;;7.00;4.97;;;;;;;;;;5064820;28;20043;-69
2023/05/15 11:17:03;;;;;;;8.88;5.20;;;;;;;;;;5083118;28;20064;-70
2023/05/15 11:19:30;;;;;;;7.15;5.07;;;;;;;;;;5098213;28;20625;-69
2023/05/15 11:21:57;;;;;;;8.93;5.05;;;;;;;;;;5076220;28;20043;-70
2023/05/15 11:24:27;;;;;;;10.02;4.78;;;;;;;;;;5080615;28;20051;-70
2023/05/15 11:27:01;;;;;;;11.05;5.20;;;;;;;;;;5065593;28;20051;-70
2023/05/15 11:29:27;;;;;;;11.15;5.38;;;;;;;;;;5092005;28;20040;-69
2023/05/15 11:31:54;;;;;;;10.80;5.65;;;;;;;;;;5076951;28;20058;-69
2023/05/15 11:34:30;;;;;;;7.40;4.68;;;;;;;;;;5071526;28;20598;-69
2023/05/15 11:36:58;;;;;;;8.32;5.63;;;;;;;;;;5071898;28;20107;-69
2023/05/15 11:39:25;;;;;;;12.88;5.00;;;;;;;;;;5070118;28;20063;-69
2023/05/15 11:41:51;;;;;;;6.88;4.53;;;;;;;;;;5070017;28;20055;-69
2023/05/15 11:44:19;;;;;;;10.00;5.70;;;;;;;;;;5067021;28;20090;-69
2023/05/15 11:46:46;;;;;;;8.38;5.80;;;;;;;;;;5071706;28;20045;-69
2023/05/15 11:49:14;;;;;;;8.95;5.93;;;;;;;;;;5070744;28;20534;-69
2023/05/15 11:51:42;;;;;;;9.80;6.28;;;;;;;;;;5069967;28;21818;-70
2023/05/15 11:54:10;;;;;;;8.18;6.10;;;;;;;;;;5067229;28;20107;-69
2023/05/15 11:56:42;;;;;;;13.00;6.90;;;;;;;;;;5069230;28;20109;-70
2023/05/15 11:59:09;;;;;;;8.68;6.72;;;;;;;;;;5067925;28;20044;-70
2023/05/15 12:01:40;;;;;;;9.43;7.20;;;;;;;;;;5071807;28;20127;-70
2023/05/15 12:04:13;;;;;;;10.45;8.63;;;;;;;;;;5068038;28;20710;-70
2023/05/15 12:06:39;;;;;;;;;;;;;;;;;;5075874;28;20047;-70
2023/05/15 12:09:07;;;;;;;9.30;8.35;;;;;;;;;;5074873;28;19924;-70
2023/05/15 12:11:33;;;;;;;8.98;7.65;;;;;;;;;;5075283;28;20036;-70
2023/05/15 12:13:59;;;;;;;9.00;7.53;;;;;;;;;;5075479;28;20107;-70
2023/05/15 12:16:26;;;;;;;11.75;8.75;;;;;;;;;;5076481;28;20101;-70
2023/05/15 12:18:52;;;;;;;10.40;8.65;;;;;;;;;;5074875;28;20056;-70
2023/05/15 12:21:18;;;;;;;11.20;8.60;;;;;;;;;;5076653;28;20044;-70
2023/05/15 12:23:52;;;;;;;11.75;8.85;;;;;;;;;;5076000;28;20522;-70
2023/05/15 12:26:18;;;;;;;;;;;;;;;;;;5075616;28;20047;-70
2023/05/15 12:28:44;;;;;;;12.90;8.70;;;;;;;;;;5072955;28;19920;-70
2023/05/15 12:31:12;;;;;;;10.75;9.00;;;;;;;;;;5076642;28;20094;-70
2023/05/15 12:33:38;;;;;;;11.75;9.70;;;;;;;;;;5073063;28;20500;-70
2023/05/15 12:36:05;;;;;;;12.30;9.20;;;;;;;;;;5076088;28;20049;-70
2023/05/15 12:38:33;;;;;;;10.85;9.20;;;;;;;;;;5076277;28;20047;-70
2023/05/15 12:41:00;;;;;;;10.05;9.05;;;;;;;;;;5071735;28;20177;-70
2023/05/15 12:43:26;;;;;;;10.45;9.35;;;;;;;;;;5075139;28;20729;-70
2023/05/15 12:45:53;;;;;;;11.68;8.93;;;;;;;;;;5074226;28;20048;-70
2023/05/15 12:48:20;;;;;;;13.55;9.80;;;;;;;;;;5076349;28;20040;-70
2023/05/15 12:50:47;;;;;;;14.55;9.52;;;;;;;;;;5078463;28;20074;-70
2023/05/15 12:53:14;;;;;;;12.15;10.48;;;;;;;;;;5073323;28;20297;-69
2023/05/15 12:55:40;;;;;;;13.23;9.73;;;;;;;;;;5072853;28;20051;-70
2023/05/15 12:58:09;;;;;;;16.45;10.55;;;;;;;;;;5069987;28;20052;-69
2023/05/15 13:00:36;;;;;;;17.40;11.07;;;;;;;;;;5070133;28;20056;-69
2023/05/15 13:03:02;;;;;;;15.73;9.93;;;;;;;;;;5072357;28;20067;-70
2023/05/15 13:05:35;;;;;;;13.32;10.18;;;;;;;;;;5074485;28;20058;-69
2023/05/15 13:08:02;;;;;;;12.82;10.60;;;;;;;;;;5074781;28;20089;-70
2023/05/15 13:10:28;;;;;;;11.45;9.52;;;;;;;;;;5055493;28;20484;-70
2023/05/15 13:12:56;;;;;;;12.15;10.00;;;;;;;;;;5069601;28;20036;-70
2023/05/15 13:15:25;;;;;;;12.25;9.55;;;;;;;;;;5074293;28;20048;-70
2023/05/15 13:17:55;;;;;;;13.02;10.05;;;;;;;;;;5076635;28;20487;-70
2023/05/15 13:20:22;;;;;;;13.80;11.10;;;;;;;;;;5081059;28;20459;-70
2023/05/15 13:22:48;;;;;;;13.13;9.48;;;;;;;;;;5070146;28;20517;-70
2023/05/15 13:25:18;;;;;;;11.25;9.05;;;;;;;;;;5069641;28;20044;-70
2023/05/15 13:27:46;;;;;;;11.50;9.02;;;;;;;;;;5069971;28;20166;-70
2023/05/15 13:30:12;;;;;;;10.73;8.23;;;;;;;;;;5071368;28;20051;-70
2023/05/15 13:32:38;;;;;;;9.70;7.75;;;;;;;;;;5074464;28;20080;-70
2023/05/15 13:35:05;;;;;;;11.73;8.93;;;;;;;;;;5076011;28;20049;-70
2023/05/15 13:37:31;;;;;;;10.43;8.48;;;;;;;;;;5073655;28;20055;-69
2023/05/15 13:39:57;;;;;;;11.00;8.02;;;;;;;;;;5071384;28;20064;-70
2023/05/15 13:42:23;;;;;;;9.20;7.60;;;;;;;;;;5074494;28;20044;-70
2023/05/15 13:44:50;;;;;;;10.63;7.57;;;;;;;;;;5073060;28;20563;-70
2023/05/15 13:47:16;;;;;;;10.32;8.23;;;;;;;;;;5075196;28;20047;-70
2023/05/15 13:49:42;;;;;;;9.20;7.40;;;;;;;;;;5074880;28;20058;-70
2023/05/15 13:52:08;;;;;;;10.43;8.38;;;;;;;;;;5075789;28;20583;-70
2023/05/15 13:54:34;;;;;;;11.27;8.68;;;;;;;;;;5071842;28;20051;-70
2023/05/15 13:57:01;;;;;;;10.35;8.30;;;;;;;;;;5072207;28;20514;-70
2023/05/15 13:59:27;;;;;;;12.45;8.15;;;;;;;;;;5068685;28;20384;-70
2023/05/15 14:01:53;;;;;;;9.15;7.57;;;;;;;;;;5074380;28;20452;-70
2023/05/15 14:04:19;;;;;;;11.45;8.77;;;;;;;;;;5074627;28;20059;-70
2023/05/15 14:06:45;;;;;;;10.32;7.40;;;;;;;;;;5069130;28;20051;-70
2023/05/15 14:09:11;;;;;;;8.35;7.45;;;;;;;;;;5079775;28;20138;-70
2023/05/15 14:11:38;;;;;;;11.10;8.15;;;;;;;;;;5072577;28;20140;-69
2023/05/15 14:14:04;;;;;;;8.05;6.93;;;;;;;;;;5073680;28;20067;-70
2023/05/15 14:16:30;;;;;;;10.73;7.53;;;;;;;;;;5075229;28;20447;-69
2023/05/15 14:18:56;;;;;;;10.80;8.57;;;;;;;;;;5069066;28;20052;-68
2023/05/15 14:21:23;;;;;;;11.02;8.73;;;;;;;;;;5075176;28;20511;-68